sensor_id;sensor_type;location;lat;lon;timestamp;P1;durP1;ratioP1;P2;durP2;ratioP2
30533;SDS011;17318;52.390;9.754;2023-03-19T00:02:15;4.97;;;2.70;;
30533;SDS011;17318;52.390;9.754;2023-03-19T00:04:41;5.00;;;2.13;;
30533;SDS011;17318;52.390;9.754;2023-03-19T00:07:06;2.30;;;1.92;;
30533;SDS011;17318;52.390;9.754;2023-03-19T00:09:32;5.15;;;2.25;;
30533;SDS011;17318;52.390;9.754;2023-03-19T00:11:58;5.40;;;2.50;;
30533;SDS011;17318;52.390;9.754;2023-03-19T00:14:24;3.20;;;2.22;;
30533;SDS011;17318;52.390;9.754;2023-03-19T00:16:50;3.78;;;2.67;;
30533;SDS011;17318;52.390;9.754;2023-03-19T00:19:15;5.80;;;3.13;;
30533;SDS011;17318;52.390;9.754;2023-03-19T00:21:41;7.55;;;4.13;;
30533;SDS011;17318;52.390;9.754;2023-03-19T00:24:07;11.30;;;5.07;;
30533;SDS011;17318;52.390;9.754;2023-03-19T00:26:34;6.10;;;3.70;;
30533;SDS011;17318;52.390;9.754;2023-03-19T00:29:01;4.63;;;2.85;;
30533;SDS011;17318;52.390;9.754;2023-03-19T00:31:28;8.75;;;3.25;;
30533;SDS011;17318;52.390;9.754;2023-03-19T00:33:58;7.60;;;3.28;;
30533;SDS011;17318;52.390;9.754;2023-03-19T00:36:25;6.10;;;3.03;;
30533;SDS011;17318;52.390;9.754;2023-03-19T00:38:52;5.97;;;3.30;;
30533;SDS011;17318;52.390;9.754;2023-03-19T00:41:18;5.60;;;3.58;;
30533;SDS011;17318;52.390;9.754;2023-03-19T00:43:45;8.05;;;3.92;;
30533;SDS011;17318;52.390;9.754;2023-03-19T00:46:12;8.15;;;3.88;;
30533;SDS011;17318;52.390;9.754;2023-03-19T00:48:38;5.18;;;2.65;;
30533;SDS011;17318;52.390;9.754;2023-03-19T00:51:04;7.82;;;3.83;;
30533;SDS011;17318;52.390;9.754;2023-03-19T00:53:32;6.75;;;3.75;;
30533;SDS011;17318;52.390;9.754;2023-03-19T00:56:01;5.95;;;3.40;;
30533;SDS011;17318;52.390;9.754;2023-03-19T00:58:27;8.88;;;3.70;;
30533;SDS011;17318;52.390;9.754;2023-03-19T01:00:53;7.05;;;3.20;;
30533;SDS011;17318;52.390;9.754;2023-03-19T01:03:19;6.50;;;2.92;;
30533;SDS011;17318;52.390;9.754;2023-03-19T01:05:49;5.57;;;2.35;;
30533;SDS011;17318;52.390;9.754;2023-03-19T01:08:15;6.78;;;3.35;;
30533;SDS011;17318;52.390;9.754;2023-03-19T01:10:42;8.60;;;3.53;;
30533;SDS011;17318;52.390;9.754;2023-03-19T01:13:08;5.15;;;3.03;;
30533;SDS011;17318;52.390;9.754;2023-03-19T01:15:37;5.97;;;3.15;;
30533;SDS011;17318;52.390;9.754;2023-03-19T01:18:05;6.15;;;3.25;;
30533;SDS011;17318;52.390;9.754;2023-03-19T01:20:31;7.30;;;4.35;;
30533;SDS011;17318;52.390;9.754;2023-03-19T01:22:58;11.45;;;4.13;;
30533;SDS011;17318;52.390;9.754;2023-03-19T01:25:23;9.07;;;4.38;;
30533;SDS011;17318;52.390;9.754;2023-03-19T01:27:49;9.63;;;4.55;;
30533;SDS011;17318;52.390;9.754;2023-03-19T01:30:16;6.57;;;4.30;;
30533;SDS011;17318;52.390;9.754;2023-03-19T01:32:42;6.95;;;4.25;;
30533;SDS011;17318;52.390;9.754;2023-03-19T01:35:08;10.80;;;4.35;;
30533;SDS011;17318;52.390;9.754;2023-03-19T01:37:34;11.05;;;3.95;;
30533;SDS011;17318;52.390;9.754;2023-03-19T01:40:01;9.83;;;4.00;;
30533;SDS011;17318;52.390;9.754;2023-03-19T01:42:27;8.80;;;4.18;;
30533;SDS011;17318;52.390;9.754;2023-03-19T01:44:53;7.30;;;4.95;;
30533;SDS011;17318;52.390;9.754;2023-03-19T01:49:58;11.48;;;5.65;;
30533;SDS011;17318;52.390;9.754;2023-03-19T01:52:26;9.80;;;4.53;;
30533;SDS011;17318;52.390;9.754;2023-03-19T01:54:56;10.35;;;5.35;;
30533;SDS011;17318;52.390;9.754;2023-03-19T01:57:23;9.60;;;5.10;;
30533;SDS011;17318;52.390;9.754;2023-03-19T01:59:54;7.95;;;5.50;;
30533;SDS011;17318;52.390;9.754;2023-03-19T02:05:15;13.00;;;6.15;;
30533;SDS011;17318;52.390;9.754;2023-03-19T02:07:40;7.53;;;5.22;;
30533;SDS011;17318;52.390;9.754;2023-03-19T02:10:09;11.73;;;5.70;;
30533;SDS011;17318;52.390;9.754;2023-03-19T02:12:37;9.00;;;6.10;;
30533;SDS011;17318;52.390;9.754;2023-03-19T02:15:03;9.25;;;5.95;;
30533;SDS011;17318;52.390;9.754;2023-03-19T02:17:30;11.63;;;5.82;;
30533;SDS011;17318;52.390;9.754;2023-03-19T02:22:39;8.90;;;5.90;;
30533;SDS011;17318;52.390;9.754;2023-03-19T02:25:10;14.98;;;6.68;;
30533;SDS011;17318;52.390;9.754;2023-03-19T02:27:40;12.63;;;6.18;;
30533;SDS011;17318;52.390;9.754;2023-03-19T02:32:57;10.88;;;6.50;;
30533;SDS011;17318;52.390;9.754;2023-03-19T02:35:23;11.45;;;6.65;;
30533;SDS011;17318;52.390;9.754;2023-03-19T02:37:50;9.93;;;6.18;;
30533;SDS011;17318;52.390;9.754;2023-03-19T02:40:29;9.63;;;6.97;;
30533;SDS011;17318;52.390;9.754;2023-03-19T02:43:00;15.68;;;7.18;;
30533;SDS011;17318;52.390;9.754;2023-03-19T02:45:29;11.60;;;6.75;;
30533;SDS011;17318;52.390;9.754;2023-03-19T02:47:56;11.13;;;7.50;;
30533;SDS011;17318;52.390;9.754;2023-03-19T02:50:22;9.68;;;6.78;;
30533;SDS011;17318;52.390;9.754;2023-03-19T02:52:47;11.27;;;6.45;;
30533;SDS011;17318;52.390;9.754;2023-03-19T02:55:13;14.20;;;7.97;;
30533;SDS011;17318;52.390;9.754;2023-03-19T02:57:42;13.45;;;7.20;;
30533;SDS011;17318;52.390;9.754;2023-03-19T03:00:08;11.02;;;6.82;;
30533;SDS011;17318;52.390;9.754;2023-03-19T03:02:35;13.43;;;7.60;;
30533;SDS011;17318;52.390;9.754;2023-03-19T03:05:00;9.48;;;6.25;;
30533;SDS011;17318;52.390;9.754;2023-03-19T03:07:26;12.18;;;7.10;;
30533;SDS011;17318;52.390;9.754;2023-03-19T03:09:51;9.90;;;6.68;;
30533;SDS011;17318;52.390;9.754;2023-03-19T03:12:17;9.20;;;6.20;;
30533;SDS011;17318;52.390;9.754;2023-03-19T03:14:43;13.05;;;6.78;;
30533;SDS011;17318;52.390;9.754;2023-03-19T03:17:08;9.23;;;6.57;;
30533;SDS011;17318;52.390;9.754;2023-03-19T03:19:34;10.43;;;6.97;;
30533;SDS011;17318;52.390;9.754;2023-03-19T03:22:00;11.93;;;6.60;;
30533;SDS011;17318;52.390;9.754;2023-03-19T03:24:26;9.43;;;5.90;;
30533;SDS011;17318;52.390;9.754;2023-03-19T03:26:52;10.85;;;6.63;;
30533;SDS011;17318;52.390;9.754;2023-03-19T03:29:17;8.73;;;6.25;;
30533;SDS011;17318;52.390;9.754;2023-03-19T03:31:43;9.40;;;6.57;;
30533;SDS011;17318;52.390;9.754;2023-03-19T03:34:09;11.60;;;6.95;;
30533;SDS011;17318;52.390;9.754;2023-03-19T03:36:35;10.23;;;6.60;;
30533;SDS011;17318;52.390;9.754;2023-03-19T03:39:01;8.07;;;5.82;;
30533;SDS011;17318;52.390;9.754;2023-03-19T03:41:28;10.70;;;6.25;;
30533;SDS011;17318;52.390;9.754;2023-03-19T03:43:53;12.15;;;6.80;;
30533;SDS011;17318;52.390;9.754;2023-03-19T03:46:19;11.40;;;6.63;;
30533;SDS011;17318;52.390;9.754;2023-03-19T03:48:45;10.63;;;6.30;;
30533;SDS011;17318;52.390;9.754;2023-03-19T03:51:13;10.48;;;6.50;;
30533;SDS011;17318;52.390;9.754;2023-03-19T03:53:39;8.40;;;6.05;;
30533;SDS011;17318;52.390;9.754;2023-03-19T03:56:05;12.35;;;5.63;;
30533;SDS011;17318;52.390;9.754;2023-03-19T03:58:31;8.75;;;5.88;;
30533;SDS011;17318;52.390;9.754;2023-03-19T04:00:57;8.70;;;5.32;;
30533;SDS011;17318;52.390;9.754;2023-03-19T04:03:22;14.05;;;6.65;;
30533;SDS011;17318;52.390;9.754;2023-03-19T04:05:49;8.98;;;6.30;;
30533;SDS011;17318;52.390;9.754;2023-03-19T04:08:15;10.15;;;5.82;;
30533;SDS011;17318;52.390;9.754;2023-03-19T04:10:41;8.65;;;5.72;;
30533;SDS011;17318;52.390;9.754;2023-03-19T04:13:08;7.82;;;5.15;;
30533;SDS011;17318;52.390;9.754;2023-03-19T04:15:34;8.33;;;5.60;;
30533;SDS011;17318;52.390;9.754;2023-03-19T04:18:00;9.85;;;5.80;;
30533;SDS011;17318;52.390;9.754;2023-03-19T04:20:26;11.05;;;6.57;;
30533;SDS011;17318;52.390;9.754;2023-03-19T04:23:13;12.02;;;5.68;;
30533;SDS011;17318;52.390;9.754;2023-03-19T04:25:38;13.18;;;6.40;;
30533;SDS011;17318;52.390;9.754;2023-03-19T04:28:05;8.40;;;5.70;;
30533;SDS011;17318;52.390;9.754;2023-03-19T04:30:30;9.65;;;5.75;;
30533;SDS011;17318;52.390;9.754;2023-03-19T04:32:56;8.73;;;5.43;;
30533;SDS011;17318;52.390;9.754;2023-03-19T04:35:22;8.63;;;5.10;;
30533;SDS011;17318;52.390;9.754;2023-03-19T04:37:47;10.77;;;6.30;;
30533;SDS011;17318;52.390;9.754;2023-03-19T04:40:13;7.88;;;5.75;;
30533;SDS011;17318;52.390;9.754;2023-03-19T04:42:40;8.48;;;5.40;;
30533;SDS011;17318;52.390;9.754;2023-03-19T04:45:08;13.57;;;5.57;;
30533;SDS011;17318;52.390;9.754;2023-03-19T04:47:34;10.70;;;5.88;;
30533;SDS011;17318;52.390;9.754;2023-03-19T04:50:00;11.73;;;6.05;;
30533;SDS011;17318;52.390;9.754;2023-03-19T04:52:26;13.57;;;6.25;;
30533;SDS011;17318;52.390;9.754;2023-03-19T04:54:53;7.53;;;4.80;;
30533;SDS011;17318;52.390;9.754;2023-03-19T04:57:19;7.32;;;5.00;;
30533;SDS011;17318;52.390;9.754;2023-03-19T04:59:45;10.88;;;5.30;;
30533;SDS011;17318;52.390;9.754;2023-03-19T05:02:11;12.15;;;5.72;;
30533;SDS011;17318;52.390;9.754;2023-03-19T05:04:37;8.85;;;4.80;;
30533;SDS011;17318;52.390;9.754;2023-03-19T05:07:02;13.15;;;5.05;;
30533;SDS011;17318;52.390;9.754;2023-03-19T05:09:28;10.63;;;5.05;;
30533;SDS011;17318;52.390;9.754;2023-03-19T05:11:55;9.00;;;5.32;;
30533;SDS011;17318;52.390;9.754;2023-03-19T05:14:21;14.45;;;5.78;;
30533;SDS011;17318;52.390;9.754;2023-03-19T05:16:47;10.80;;;6.10;;
30533;SDS011;17318;52.390;9.754;2023-03-19T05:19:12;9.07;;;5.82;;
30533;SDS011;17318;52.390;9.754;2023-03-19T05:21:38;10.77;;;5.00;;
30533;SDS011;17318;52.390;9.754;2023-03-19T05:24:04;9.50;;;5.18;;
30533;SDS011;17318;52.390;9.754;2023-03-19T05:26:31;11.35;;;5.57;;
30533;SDS011;17318;52.390;9.754;2023-03-19T05:28:57;7.20;;;5.00;;
30533;SDS011;17318;52.390;9.754;2023-03-19T05:31:22;11.45;;;5.13;;
30533;SDS011;17318;52.390;9.754;2023-03-19T05:33:48;10.90;;;5.38;;
30533;SDS011;17318;52.390;9.754;2023-03-19T05:36:14;9.27;;;4.70;;
30533;SDS011;17318;52.390;9.754;2023-03-19T05:38:40;8.70;;;4.85;;
30533;SDS011;17318;52.390;9.754;2023-03-19T05:41:06;11.52;;;5.32;;
30533;SDS011;17318;52.390;9.754;2023-03-19T05:43:32;8.70;;;4.55;;
30533;SDS011;17318;52.390;9.754;2023-03-19T05:45:58;11.90;;;4.72;;
30533;SDS011;17318;52.390;9.754;2023-03-19T05:48:24;11.48;;;4.60;;
30533;SDS011;17318;52.390;9.754;2023-03-19T05:50:50;9.77;;;4.78;;
30533;SDS011;17318;52.390;9.754;2023-03-19T05:53:17;10.88;;;4.28;;
30533;SDS011;17318;52.390;9.754;2023-03-19T05:55:43;8.68;;;4.35;;
30533;SDS011;17318;52.390;9.754;2023-03-19T05:58:09;9.80;;;4.10;;
30533;SDS011;17318;52.390;9.754;2023-03-19T06:00:35;11.65;;;4.35;;
30533;SDS011;17318;52.390;9.754;2023-03-19T06:03:00;8.73;;;4.55;;
30533;SDS011;17318;52.390;9.754;2023-03-19T06:05:26;9.18;;;4.57;;
30533;SDS011;17318;52.390;9.754;2023-03-19T06:07:52;8.70;;;4.97;;
30533;SDS011;17318;52.390;9.754;2023-03-19T06:10:18;8.30;;;4.25;;
30533;SDS011;17318;52.390;9.754;2023-03-19T06:12:44;9.77;;;5.30;;
30533;SDS011;17318;52.390;9.754;2023-03-19T06:15:10;10.40;;;5.68;;
30533;SDS011;17318;52.390;9.754;2023-03-19T06:17:37;10.45;;;4.53;;
30533;SDS011;17318;52.390;9.754;2023-03-19T06:20:03;8.35;;;4.20;;
30533;SDS011;17318;52.390;9.754;2023-03-19T06:22:29;7.57;;;4.28;;
30533;SDS011;17318;52.390;9.754;2023-03-19T06:24:54;13.85;;;5.20;;
30533;SDS011;17318;52.390;9.754;2023-03-19T06:27:20;10.57;;;4.68;;
30533;SDS011;17318;52.390;9.754;2023-03-19T06:29:46;16.45;;;4.53;;
30533;SDS011;17318;52.390;9.754;2023-03-19T06:32:11;10.82;;;4.15;;
30533;SDS011;17318;52.390;9.754;2023-03-19T06:34:38;12.15;;;4.30;;
30533;SDS011;17318;52.390;9.754;2023-03-19T06:37:03;9.82;;;3.67;;
30533;SDS011;17318;52.390;9.754;2023-03-19T06:39:29;7.07;;;3.75;;
30533;SDS011;17318;52.390;9.754;2023-03-19T06:41:55;9.18;;;3.70;;
30533;SDS011;17318;52.390;9.754;2023-03-19T06:44:21;7.68;;;4.05;;
30533;SDS011;17318;52.390;9.754;2023-03-19T06:46:49;7.35;;;3.67;;
30533;SDS011;17318;52.390;9.754;2023-03-19T06:49:14;9.80;;;4.55;;
30533;SDS011;17318;52.390;9.754;2023-03-19T06:51:40;6.25;;;3.50;;
30533;SDS011;17318;52.390;9.754;2023-03-19T06:54:06;7.10;;;3.45;;
30533;SDS011;17318;52.390;9.754;2023-03-19T06:56:32;11.70;;;3.60;;
30533;SDS011;17318;52.390;9.754;2023-03-19T06:58:57;11.38;;;3.38;;
30533;SDS011;17318;52.390;9.754;2023-03-19T07:01:23;7.28;;;3.28;;
30533;SDS011;17318;52.390;9.754;2023-03-19T07:03:49;7.30;;;3.60;;
30533;SDS011;17318;52.390;9.754;2023-03-19T07:06:14;8.95;;;3.30;;
30533;SDS011;17318;52.390;9.754;2023-03-19T07:08:40;8.77;;;3.00;;
30533;SDS011;17318;52.390;9.754;2023-03-19T07:11:10;8.10;;;3.45;;
30533;SDS011;17318;52.390;9.754;2023-03-19T07:13:37;8.63;;;3.50;;
30533;SDS011;17318;52.390;9.754;2023-03-19T07:16:04;8.57;;;3.63;;
30533;SDS011;17318;52.390;9.754;2023-03-19T07:18:30;12.35;;;5.85;;
30533;SDS011;17318;52.390;9.754;2023-03-19T07:20:55;9.40;;;4.28;;
30533;SDS011;17318;52.390;9.754;2023-03-19T07:23:21;6.75;;;3.65;;
30533;SDS011;17318;52.390;9.754;2023-03-19T07:25:46;12.90;;;3.40;;
30533;SDS011;17318;52.390;9.754;2023-03-19T07:28:12;11.10;;;5.63;;
30533;SDS011;17318;52.390;9.754;2023-03-19T07:30:39;10.05;;;5.32;;
30533;SDS011;17318;52.390;9.754;2023-03-19T07:33:05;8.77;;;3.40;;
30533;SDS011;17318;52.390;9.754;2023-03-19T07:35:32;5.93;;;3.13;;
30533;SDS011;17318;52.390;9.754;2023-03-19T07:37:58;6.80;;;3.30;;
30533;SDS011;17318;52.390;9.754;2023-03-19T07:40:24;7.70;;;2.95;;
30533;SDS011;17318;52.390;9.754;2023-03-19T07:42:50;9.40;;;4.10;;
30533;SDS011;17318;52.390;9.754;2023-03-19T07:45:16;12.45;;;6.13;;
30533;SDS011;17318;52.390;9.754;2023-03-19T07:47:42;6.32;;;3.53;;
30533;SDS011;17318;52.390;9.754;2023-03-19T07:50:08;7.25;;;2.78;;
30533;SDS011;17318;52.390;9.754;2023-03-19T07:52:34;8.18;;;3.40;;
30533;SDS011;17318;52.390;9.754;2023-03-19T07:55:00;8.80;;;3.10;;
30533;SDS011;17318;52.390;9.754;2023-03-19T07:57:26;6.75;;;2.90;;
30533;SDS011;17318;52.390;9.754;2023-03-19T07:59:52;5.95;;;3.00;;
30533;SDS011;17318;52.390;9.754;2023-03-19T08:02:18;5.60;;;2.85;;
30533;SDS011;17318;52.390;9.754;2023-03-19T08:04:43;10.65;;;3.30;;
30533;SDS011;17318;52.390;9.754;2023-03-19T08:07:09;4.45;;;2.85;;
30533;SDS011;17318;52.390;9.754;2023-03-19T08:09:37;5.43;;;2.50;;
30533;SDS011;17318;52.390;9.754;2023-03-19T08:12:06;7.60;;;3.55;;
30533;SDS011;17318;52.390;9.754;2023-03-19T08:14:33;6.20;;;2.95;;
30533;SDS011;17318;52.390;9.754;2023-03-19T08:16:59;10.52;;;2.88;;
30533;SDS011;17318;52.390;9.754;2023-03-19T08:19:25;9.73;;;2.90;;
30533;SDS011;17318;52.390;9.754;2023-03-19T08:21:51;4.20;;;2.70;;
30533;SDS011;17318;52.390;9.754;2023-03-19T08:24:16;4.93;;;2.38;;
30533;SDS011;17318;52.390;9.754;2023-03-19T08:26:44;4.57;;;2.45;;
30533;SDS011;17318;52.390;9.754;2023-03-19T08:29:10;9.35;;;5.20;;
30533;SDS011;17318;52.390;9.754;2023-03-19T08:31:36;8.57;;;3.63;;
30533;SDS011;17318;52.390;9.754;2023-03-19T08:34:01;7.63;;;2.50;;
30533;SDS011;17318;52.390;9.754;2023-03-19T08:36:28;7.70;;;2.78;;
30533;SDS011;17318;52.390;9.754;2023-03-19T08:38:55;8.68;;;2.38;;
30533;SDS011;17318;52.390;9.754;2023-03-19T08:41:21;8.93;;;2.50;;
30533;SDS011;17318;52.390;9.754;2023-03-19T08:43:48;4.03;;;2.00;;
30533;SDS011;17318;52.390;9.754;2023-03-19T08:46:13;4.15;;;2.20;;
30533;SDS011;17318;52.390;9.754;2023-03-19T08:48:39;7.95;;;2.45;;
30533;SDS011;17318;52.390;9.754;2023-03-19T08:51:05;11.25;;;2.50;;
30533;SDS011;17318;52.390;9.754;2023-03-19T08:53:31;7.05;;;2.00;;
30533;SDS011;17318;52.390;9.754;2023-03-19T08:56:01;4.30;;;2.38;;
30533;SDS011;17318;52.390;9.754;2023-03-19T08:58:29;3.92;;;2.20;;
30533;SDS011;17318;52.390;9.754;2023-03-19T09:01:04;4.55;;;2.00;;
30533;SDS011;17318;52.390;9.754;2023-03-19T09:03:35;3.60;;;2.17;;
30533;SDS011;17318;52.390;9.754;2023-03-19T09:06:02;4.18;;;2.30;;
30533;SDS011;17318;52.390;9.754;2023-03-19T09:08:29;3.95;;;1.90;;
30533;SDS011;17318;52.390;9.754;2023-03-19T09:10:56;4.88;;;1.92;;
30533;SDS011;17318;52.390;9.754;2023-03-19T09:13:22;3.72;;;1.50;;
30533;SDS011;17318;52.390;9.754;2023-03-19T09:15:49;4.07;;;1.88;;
30533;SDS011;17318;52.390;9.754;2023-03-19T09:18:15;3.15;;;1.40;;
30533;SDS011;17318;52.390;9.754;2023-03-19T09:20:41;6.22;;;1.83;;
30533;SDS011;17318;52.390;9.754;2023-03-19T09:23:07;2.88;;;1.40;;
30533;SDS011;17318;52.390;9.754;2023-03-19T09:25:33;2.20;;;1.30;;
30533;SDS011;17318;52.390;9.754;2023-03-19T09:27:58;4.35;;;1.73;;
30533;SDS011;17318;52.390;9.754;2023-03-19T09:30:24;3.42;;;1.60;;
30533;SDS011;17318;52.390;9.754;2023-03-19T09:32:50;5.38;;;1.50;;
30533;SDS011;17318;52.390;9.754;2023-03-19T09:35:15;2.88;;;1.17;;
30533;SDS011;17318;52.390;9.754;2023-03-19T09:37:41;8.63;;;1.55;;
30533;SDS011;17318;52.390;9.754;2023-03-19T09:40:08;2.53;;;1.23;;
30533;SDS011;17318;52.390;9.754;2023-03-19T09:45:17;3.05;;;1.60;;
30533;SDS011;17318;52.390;9.754;2023-03-19T09:47:44;2.88;;;1.80;;
30533;SDS011;17318;52.390;9.754;2023-03-19T09:50:14;3.35;;;1.17;;
30533;SDS011;17318;52.390;9.754;2023-03-19T09:57:50;2.35;;;1.23;;
30533;SDS011;17318;52.390;9.754;2023-03-19T10:00:31;5.85;;;1.50;;
30533;SDS011;17318;52.390;9.754;2023-03-19T10:03:04;2.72;;;1.25;;
30533;SDS011;17318;52.390;9.754;2023-03-19T10:08:46;4.72;;;1.67;;
30533;SDS011;17318;52.390;9.754;2023-03-19T10:14:19;2.80;;;1.55;;
30533;SDS011;17318;52.390;9.754;2023-03-19T10:17:19;5.30;;;1.42;;
30533;SDS011;17318;52.390;9.754;2023-03-19T10:19:57;2.33;;;1.25;;
30533;SDS011;17318;52.390;9.754;2023-03-19T10:22:40;2.88;;;1.20;;
30533;SDS011;17318;52.390;9.754;2023-03-19T10:25:12;2.03;;;1.13;;
30533;SDS011;17318;52.390;9.754;2023-03-19T10:27:55;2.42;;;1.30;;
30533;SDS011;17318;52.390;9.754;2023-03-19T10:30:25;2.17;;;1.50;;
30533;SDS011;17318;52.390;9.754;2023-03-19T10:35:56;2.08;;;1.17;;
30533;SDS011;17318;52.390;9.754;2023-03-19T10:38:27;6.25;;;1.48;;
30533;SDS011;17318;52.390;9.754;2023-03-19T10:43:42;3.08;;;1.65;;
30533;SDS011;17318;52.390;9.754;2023-03-19T10:46:14;6.43;;;1.60;;
30533;SDS011;17318;52.390;9.754;2023-03-19T10:48:43;3.47;;;1.75;;
30533;SDS011;17318;52.390;9.754;2023-03-19T10:51:12;3.15;;;1.30;;
30533;SDS011;17318;52.390;9.754;2023-03-19T10:53:51;3.83;;;1.50;;
30533;SDS011;17318;52.390;9.754;2023-03-19T10:59:04;7.03;;;1.60;;
30533;SDS011;17318;52.390;9.754;2023-03-19T11:01:39;1.95;;;1.15;;
30533;SDS011;17318;52.390;9.754;2023-03-19T11:04:21;3.80;;;1.52;;
30533;SDS011;17318;52.390;9.754;2023-03-19T11:06:51;5.28;;;1.30;;
30533;SDS011;17318;52.390;9.754;2023-03-19T11:12:26;4.35;;;1.52;;
30533;SDS011;17318;52.390;9.754;2023-03-19T11:14:55;3.70;;;1.40;;
30533;SDS011;17318;52.390;9.754;2023-03-19T11:17:23;3.22;;;1.20;;
30533;SDS011;17318;52.390;9.754;2023-03-19T11:19:56;2.70;;;1.30;;
30533;SDS011;17318;52.390;9.754;2023-03-19T11:24:59;4.22;;;1.33;;
30533;SDS011;17318;52.390;9.754;2023-03-19T11:27:35;6.38;;;1.50;;
30533;SDS011;17318;52.390;9.754;2023-03-19T11:30:03;4.63;;;1.50;;
30533;SDS011;17318;52.390;9.754;2023-03-19T11:32:47;5.43;;;1.52;;
30533;SDS011;17318;52.390;9.754;2023-03-19T11:35:31;4.28;;;1.48;;
30533;SDS011;17318;52.390;9.754;2023-03-19T11:38:02;6.22;;;1.65;;
30533;SDS011;17318;52.390;9.754;2023-03-19T11:43:14;3.22;;;1.23;;
30533;SDS011;17318;52.390;9.754;2023-03-19T11:51:36;3.45;;;1.50;;
30533;SDS011;17318;52.390;9.754;2023-03-19T11:54:16;8.27;;;1.60;;
30533;SDS011;17318;52.390;9.754;2023-03-19T11:57:03;6.85;;;1.45;;
30533;SDS011;17318;52.390;9.754;2023-03-19T12:05:32;3.28;;;1.42;;
30533;SDS011;17318;52.390;9.754;2023-03-19T12:21:33;9.35;;;4.45;;
30533;SDS011;17318;52.390;9.754;2023-03-19T12:24:18;4.72;;;1.48;;
30533;SDS011;17318;52.390;9.754;2023-03-19T12:27:19;4.20;;;1.33;;
30533;SDS011;17318;52.390;9.754;2023-03-19T12:35:46;6.28;;;1.50;;
30533;SDS011;17318;52.390;9.754;2023-03-19T12:40:59;5.18;;;1.63;;
30533;SDS011;17318;52.390;9.754;2023-03-19T12:43:35;4.93;;;1.27;;
30533;SDS011;17318;52.390;9.754;2023-03-19T12:46:13;5.35;;;1.40;;
30533;SDS011;17318;52.390;9.754;2023-03-19T12:48:49;2.70;;;1.38;;
30533;SDS011;17318;52.390;9.754;2023-03-19T12:51:19;3.78;;;1.40;;
30533;SDS011;17318;52.390;9.754;2023-03-19T13:02:21;3.20;;;1.08;;
30533;SDS011;17318;52.390;9.754;2023-03-19T13:07:54;2.95;;;0.90;;
30533;SDS011;17318;52.390;9.754;2023-03-19T13:10:37;3.10;;;1.20;;
30533;SDS011;17318;52.390;9.754;2023-03-19T13:15:57;9.98;;;3.60;;
30533;SDS011;17318;52.390;9.754;2023-03-19T13:21:42;1.90;;;0.98;;
30533;SDS011;17318;52.390;9.754;2023-03-19T13:26:45;2.35;;;1.50;;
30533;SDS011;17318;52.390;9.754;2023-03-19T13:29:17;5.00;;;1.65;;
30533;SDS011;17318;52.390;9.754;2023-03-19T13:31:51;4.18;;;1.30;;
30533;SDS011;17318;52.390;9.754;2023-03-19T13:34:24;3.05;;;1.58;;
30533;SDS011;17318;52.390;9.754;2023-03-19T13:36:52;4.53;;;1.40;;
30533;SDS011;17318;52.390;9.754;2023-03-19T13:39:26;2.90;;;1.35;;
30533;SDS011;17318;52.390;9.754;2023-03-19T13:44:40;3.10;;;1.50;;
30533;SDS011;17318;52.390;9.754;2023-03-19T13:57:53;3.70;;;2.40;;
30533;SDS011;17318;52.390;9.754;2023-03-19T14:03:20;4.95;;;2.75;;
30533;SDS011;17318;52.390;9.754;2023-03-19T14:05:49;9.75;;;5.18;;
30533;SDS011;17318;52.390;9.754;2023-03-19T14:08:23;6.07;;;3.00;;
30533;SDS011;17318;52.390;9.754;2023-03-19T14:10:53;7.00;;;3.15;;
30533;SDS011;17318;52.390;9.754;2023-03-19T14:13:36;8.02;;;3.17;;
30533;SDS011;17318;52.390;9.754;2023-03-19T14:16:06;5.90;;;3.35;;
30533;SDS011;17318;52.390;9.754;2023-03-19T14:18:41;6.65;;;3.00;;
30533;SDS011;17318;52.390;9.754;2023-03-19T14:21:30;6.97;;;3.47;;
30533;SDS011;17318;52.390;9.754;2023-03-19T14:26:50;5.20;;;3.40;;
30533;SDS011;17318;52.390;9.754;2023-03-19T14:29:16;6.05;;;3.35;;
30533;SDS011;17318;52.390;9.754;2023-03-19T14:31:53;6.38;;;3.65;;
30533;SDS011;17318;52.390;9.754;2023-03-19T14:34:26;8.75;;;3.88;;
30533;SDS011;17318;52.390;9.754;2023-03-19T14:39:57;4.78;;;3.25;;
30533;SDS011;17318;52.390;9.754;2023-03-19T14:53:23;5.78;;;3.50;;
30533;SDS011;17318;52.390;9.754;2023-03-19T14:56:08;5.88;;;3.20;;
30533;SDS011;17318;52.390;9.754;2023-03-19T14:58:46;5.20;;;3.35;;
30533;SDS011;17318;52.390;9.754;2023-03-19T15:01:17;8.90;;;2.83;;
30533;SDS011;17318;52.390;9.754;2023-03-19T15:03:45;8.23;;;2.90;;
30533;SDS011;17318;52.390;9.754;2023-03-19T15:06:20;4.00;;;2.47;;
30533;SDS011;17318;52.390;9.754;2023-03-19T15:08:47;7.93;;;2.88;;
30533;SDS011;17318;52.390;9.754;2023-03-19T15:14:03;4.22;;;2.75;;
30533;SDS011;17318;52.390;9.754;2023-03-19T15:17:15;12.45;;;3.45;;
30533;SDS011;17318;52.390;9.754;2023-03-19T15:19:48;5.38;;;3.22;;
30533;SDS011;17318;52.390;9.754;2023-03-19T15:22:20;6.57;;;3.92;;
30533;SDS011;17318;52.390;9.754;2023-03-19T15:24:51;7.38;;;3.38;;
30533;SDS011;17318;52.390;9.754;2023-03-19T15:27:21;4.72;;;3.25;;
30533;SDS011;17318;52.390;9.754;2023-03-19T15:29:48;4.22;;;2.72;;
30533;SDS011;17318;52.390;9.754;2023-03-19T15:35:02;6.60;;;3.00;;
30533;SDS011;17318;52.390;9.754;2023-03-19T15:37:29;4.75;;;3.55;;
30533;SDS011;17318;52.390;9.754;2023-03-19T15:40:01;5.30;;;3.22;;
30533;SDS011;17318;52.390;9.754;2023-03-19T15:42:31;4.97;;;3.00;;
30533;SDS011;17318;52.390;9.754;2023-03-19T15:45:01;6.63;;;4.35;;
30533;SDS011;17318;52.390;9.754;2023-03-19T15:47:33;8.35;;;3.67;;
30533;SDS011;17318;52.390;9.754;2023-03-19T15:50:06;6.13;;;3.20;;
30533;SDS011;17318;52.390;9.754;2023-03-19T15:52:40;4.90;;;2.90;;
30533;SDS011;17318;52.390;9.754;2023-03-19T15:55:07;6.32;;;3.15;;
30533;SDS011;17318;52.390;9.754;2023-03-19T15:57:35;6.40;;;2.85;;
30533;SDS011;17318;52.390;9.754;2023-03-19T16:00:02;7.57;;;2.78;;
30533;SDS011;17318;52.390;9.754;2023-03-19T16:02:30;5.25;;;2.80;;
30533;SDS011;17318;52.390;9.754;2023-03-19T16:04:58;4.30;;;2.70;;
30533;SDS011;17318;52.390;9.754;2023-03-19T16:09:56;3.75;;;2.53;;
30533;SDS011;17318;52.390;9.754;2023-03-19T16:12:36;5.80;;;3.90;;
30533;SDS011;17318;52.390;9.754;2023-03-19T16:20:47;3.38;;;2.65;;
30533;SDS011;17318;52.390;9.754;2023-03-19T16:23:27;7.85;;;3.42;;
30533;SDS011;17318;52.390;9.754;2023-03-19T16:26:03;3.80;;;2.80;;
30533;SDS011;17318;52.390;9.754;2023-03-19T16:28:39;4.25;;;3.33;;
30533;SDS011;17318;52.390;9.754;2023-03-19T16:31:16;3.03;;;2.45;;
30533;SDS011;17318;52.390;9.754;2023-03-19T16:33:43;4.32;;;2.72;;
30533;SDS011;17318;52.390;9.754;2023-03-19T16:36:11;7.45;;;3.17;;
30533;SDS011;17318;52.390;9.754;2023-03-19T16:41:40;4.55;;;3.13;;
30533;SDS011;17318;52.390;9.754;2023-03-19T16:44:14;9.15;;;3.60;;
30533;SDS011;17318;52.390;9.754;2023-03-19T16:46:42;4.93;;;2.78;;
30533;SDS011;17318;52.390;9.754;2023-03-19T16:49:08;5.88;;;2.63;;
30533;SDS011;17318;52.390;9.754;2023-03-19T16:51:34;4.72;;;2.60;;
30533;SDS011;17318;52.390;9.754;2023-03-19T16:54:02;5.60;;;2.50;;
30533;SDS011;17318;52.390;9.754;2023-03-19T16:56:27;4.03;;;2.30;;
30533;SDS011;17318;52.390;9.754;2023-03-19T16:58:54;3.92;;;2.90;;
30533;SDS011;17318;52.390;9.754;2023-03-19T17:01:21;4.55;;;3.22;;
30533;SDS011;17318;52.390;9.754;2023-03-19T17:03:48;5.15;;;3.15;;
30533;SDS011;17318;52.390;9.754;2023-03-19T17:06:14;7.97;;;3.83;;
30533;SDS011;17318;52.390;9.754;2023-03-19T17:08:41;8.80;;;3.55;;
30533;SDS011;17318;52.390;9.754;2023-03-19T17:11:25;5.80;;;3.05;;
30533;SDS011;17318;52.390;9.754;2023-03-19T17:13:54;4.93;;;3.13;;
30533;SDS011;17318;52.390;9.754;2023-03-19T17:16:22;5.43;;;3.40;;
30533;SDS011;17318;52.390;9.754;2023-03-19T17:18:48;4.57;;;3.38;;
30533;SDS011;17318;52.390;9.754;2023-03-19T17:21:15;11.88;;;3.25;;